sensor_id;sensor_type;location;lat;lon;timestamp;pressure;altitude;pressure_sealevel;temperature;humidity
42067;BME280;27734;47.028;28.820;2023-06-24T00:01:26;100336.00;;;25.09;49.51
42067;BME280;27734;47.028;28.820;2023-06-24T00:03:57;100336.08;;;25.06;50.13
42067;BME280;27734;47.028;28.820;2023-06-24T00:06:28;100337.93;;;25.04;49.75
42067;BME280;27734;47.028;28.820;2023-06-24T00:09:00;100339.75;;;25.02;49.89
42067;BME280;27734;47.028;28.820;2023-06-24T00:11:31;100331.70;;;25.02;50.34
42067;BME280;27734;47.028;28.820;2023-06-24T00:14:02;100336.20;;;25.02;50.11
42067;BME280;27734;47.028;28.820;2023-06-24T00:16:34;100333.59;;;24.99;50.12
42067;BME280;27734;47.028;28.820;2023-06-24T00:19:06;100335.49;;;24.95;50.65
42067;BME280;27734;47.028;28.820;2023-06-24T00:21:37;100343.58;;;24.93;50.80
42067;BME280;27734;47.028;28.820;2023-06-24T00:24:09;100341.81;;;24.92;50.56
42067;BME280;27734;47.028;28.820;2023-06-24T00:26:40;100340.94;;;24.92;51.03
42067;BME280;27734;47.028;28.820;2023-06-24T00:29:12;100345.52;;;24.87;51.27
42067;BME280;27734;47.028;28.820;2023-06-24T00:31:44;100352.73;;;24.85;51.17
42067;BME280;27734;47.028;28.820;2023-06-24T00:34:16;100353.57;;;24.87;51.19
42067;BME280;27734;47.028;28.820;2023-06-24T00:36:49;100356.25;;;24.87;51.19
42067;BME280;27734;47.028;28.820;2023-06-24T00:39:21;100344.69;;;24.85;51.02
42067;BME280;27734;47.028;28.820;2023-06-24T00:41:52;100342.88;;;24.85;51.32
42067;BME280;27734;47.028;28.820;2023-06-24T00:44:25;100343.78;;;24.86;51.68
42067;BME280;27734;47.028;28.820;2023-06-24T00:46:56;100344.77;;;24.82;51.39
42067;BME280;27734;47.028;28.820;2023-06-24T00:49:28;100341.30;;;24.78;51.67
42067;BME280;27734;47.028;28.820;2023-06-24T00:52:00;100338.61;;;24.78;51.78
42067;BME280;27734;47.028;28.820;2023-06-24T00:54:31;100339.55;;;24.75;51.99
42067;BME280;27734;47.028;28.820;2023-06-24T00:57:03;100337.70;;;24.78;51.97
42067;BME280;27734;47.028;28.820;2023-06-24T00:59:35;100343.98;;;24.78;51.93
42067;BME280;27734;47.028;28.820;2023-06-24T01:02:07;100337.70;;;24.78;52.44
42067;BME280;27734;47.028;28.820;2023-06-24T01:04:38;100341.33;;;24.76;52.34
42067;BME280;27734;47.028;28.820;2023-06-24T01:07:10;100339.52;;;24.77;52.45
42067;BME280;27734;47.028;28.820;2023-06-24T01:09:42;100331.47;;;24.77;52.61
42067;BME280;27734;47.028;28.820;2023-06-24T01:12:13;100337.75;;;24.76;52.63
42067;BME280;27734;47.028;28.820;2023-06-24T01:14:45;100344.05;;;24.75;52.90
42067;BME280;27734;47.028;28.820;2023-06-24T01:17:19;100350.37;;;24.72;52.37
42067;BME280;27734;47.028;28.820;2023-06-24T01:20:04;100376.48;;;24.66;52.91
42067;BME280;27734;47.028;28.820;2023-06-24T01:23:09;100352.52;;;24.58;53.03
42067;BME280;27734;47.028;28.820;2023-06-24T01:26:03;100341.80;;;24.56;52.92
42067;BME280;27734;47.028;28.820;2023-06-24T01:31:45;100357.23;;;24.47;52.41
42067;BME280;27734;47.028;28.820;2023-06-24T01:34:24;100352.86;;;24.43;53.58
42067;BME280;27734;47.028;28.820;2023-06-24T01:37:03;100363.62;;;24.41;53.33
42067;BME280;27734;47.028;28.820;2023-06-24T01:39:41;100358.25;;;24.41;53.13
42067;BME280;27734;47.028;28.820;2023-06-24T01:42:16;100353.80;;;24.40;53.67
42067;BME280;27734;47.028;28.820;2023-06-24T01:47:43;100370.80;;;24.40;53.19
42067;BME280;27734;47.028;28.820;2023-06-24T01:50:12;100374.45;;;24.36;53.35
42067;BME280;27734;47.028;28.820;2023-06-24T01:52:46;100374.45;;;24.36;53.58
42067;BME280;27734;47.028;28.820;2023-06-24T01:55:20;100374.45;;;24.36;53.72
42067;BME280;27734;47.028;28.820;2023-06-24T01:57:54;100377.17;;;24.35;53.87
42067;BME280;27734;47.028;28.820;2023-06-24T02:00:27;100385.25;;;24.33;54.20
42067;BME280;27734;47.028;28.820;2023-06-24T02:03:00;100380.75;;;24.34;53.59
42067;BME280;27734;47.028;28.820;2023-06-24T02:05:33;100377.23;;;24.32;53.96
42067;BME280;27734;47.028;28.820;2023-06-24T02:08:06;100375.50;;;24.29;54.22
42067;BME280;27734;47.028;28.820;2023-06-24T02:10:40;100379.12;;;24.28;54.39
42067;BME280;27734;47.028;28.820;2023-06-24T02:13:13;100365.71;;;24.28;54.45
42067;BME280;27734;47.028;28.820;2023-06-24T02:15:45;100368.43;;;24.27;54.74
42067;BME280;27734;47.028;28.820;2023-06-24T02:18:18;100372.02;;;24.26;54.96
42067;BME280;27734;47.028;28.820;2023-06-24T02:20:52;100376.50;;;24.25;54.76
42067;BME280;27734;47.028;28.820;2023-06-24T02:23:25;100379.19;;;24.25;54.88
42067;BME280;27734;47.028;28.820;2023-06-24T02:25:56;100375.60;;;24.25;55.15
42067;BME280;27734;47.028;28.820;2023-06-24T02:28:28;100372.05;;;24.24;55.44
42067;BME280;27734;47.028;28.820;2023-06-24T02:31:01;100374.73;;;24.24;55.47
42067;BME280;27734;47.028;28.820;2023-06-24T02:33:32;100376.47;;;24.27;55.25
42067;BME280;27734;47.028;28.820;2023-06-24T02:36:04;100374.66;;;24.27;55.62
42067;BME280;27734;47.028;28.820;2023-06-24T02:38:35;100374.62;;;24.29;55.74
42067;BME280;27734;47.028;28.820;2023-06-24T02:41:07;100379.12;;;24.28;55.51
42067;BME280;27734;47.028;28.820;2023-06-24T02:43:38;100388.97;;;24.26;55.77
42067;BME280;27734;47.028;28.820;2023-06-24T02:46:10;100384.52;;;24.27;55.75
42067;BME280;27734;47.028;28.820;2023-06-24T02:48:42;100388.94;;;24.28;55.59
42067;BME280;27734;47.028;28.820;2023-06-24T02:51:16;100386.26;;;24.28;56.06
42067;BME280;27734;47.028;28.820;2023-06-24T02:53:48;100381.77;;;24.30;55.92
42067;BME280;27734;47.028;28.820;2023-06-24T02:56:26;100387.09;;;24.31;56.16
42067;BME280;27734;47.028;28.820;2023-06-24T02:58:58;100382.56;;;24.33;56.00
42067;BME280;27734;47.028;28.820;2023-06-24T03:01:31;100382.53;;;24.35;56.19
42067;BME280;27734;47.028;28.820;2023-06-24T03:04:08;100373.55;;;24.37;56.05
42067;BME280;27734;47.028;28.820;2023-06-24T03:06:43;100381.52;;;24.40;56.12
42067;BME280;27734;47.028;28.820;2023-06-24T03:09:15;100387.68;;;24.44;56.51
42067;BME280;27734;47.028;28.820;2023-06-24T03:11:47;100377.75;;;24.48;56.49
42067;BME280;27734;47.028;28.820;2023-06-24T03:14:24;100380.40;;;24.49;56.42
42067;BME280;27734;47.028;28.820;2023-06-24T03:16:56;100376.77;;;24.52;56.67
42067;BME280;27734;47.028;28.820;2023-06-24T03:19:29;100364.16;;;24.55;56.57
42067;BME280;27734;47.028;28.820;2023-06-24T03:22:01;100365.93;;;24.58;56.68
42067;BME280;27734;47.028;28.820;2023-06-24T03:24:32;100364.98;;;24.61;56.94
42067;BME280;27734;47.028;28.820;2023-06-24T03:27:04;100358.64;;;24.63;56.60
42067;BME280;27734;47.028;28.820;2023-06-24T03:29:41;100350.48;;;24.68;57.28
42067;BME280;27734;47.028;28.820;2023-06-24T03:32:15;100353.99;;;24.71;57.04
42067;BME280;27734;47.028;28.820;2023-06-24T03:34:46;100349.45;;;24.73;57.24
42067;BME280;27734;47.028;28.820;2023-06-24T03:37:18;100347.56;;;24.77;57.06
42067;BME280;27734;47.028;28.820;2023-06-24T03:39:49;100340.27;;;24.82;56.95
42067;BME280;27734;47.028;28.820;2023-06-24T03:42:21;100341.09;;;24.86;57.24
42067;BME280;27734;47.028;28.820;2023-06-24T03:44:52;100336.48;;;24.91;57.11
42067;BME280;27734;47.028;28.820;2023-06-24T03:47:23;100330.12;;;24.95;57.28
42067;BME280;27734;47.028;28.820;2023-06-24T03:49:55;100322.86;;;24.99;56.79
42067;BME280;27734;47.028;28.820;2023-06-24T03:52:26;100316.54;;;25.01;57.31
42067;BME280;27734;47.028;28.820;2023-06-24T03:54:58;100305.77;;;25.03;57.07
42067;BME280;27734;47.028;28.820;2023-06-24T03:57:31;100302.17;;;25.02;57.11
42067;BME280;27734;47.028;28.820;2023-06-24T04:00:03;100293.21;;;25.03;57.31
42067;BME280;27734;47.028;28.820;2023-06-24T04:02:43;100274.42;;;25.03;57.03
42067;BME280;27734;47.028;28.820;2023-06-24T04:05:15;100262.77;;;25.04;57.28
42067;BME280;27734;47.028;28.820;2023-06-24T04:07:46;100269.05;;;25.03;57.64
42067;BME280;27734;47.028;28.820;2023-06-24T04:10:18;100277.94;;;25.05;57.09
42067;BME280;27734;47.028;28.820;2023-06-24T04:12:49;100255.46;;;25.09;57.48
42067;BME280;27734;47.028;28.820;2023-06-24T04:15:21;100236.63;;;25.11;57.79
42067;BME280;27734;47.028;28.820;2023-06-24T04:17:52;100207.97;;;25.11;57.92
42067;BME280;27734;47.028;28.820;2023-06-24T04:20:23;100207.05;;;25.12;57.46
42067;BME280;27734;47.028;28.820;2023-06-24T04:22:55;100205.19;;;25.15;57.41
42067;BME280;27734;47.028;28.820;2023-06-24T04:25:26;100195.41;;;25.14;57.92
42067;BME280;27734;47.028;28.820;2023-06-24T04:27:57;100186.49;;;25.11;57.83
42067;BME280;27734;47.028;28.820;2023-06-24T04:30:29;100194.63;;;25.08;57.96
42067;BME280;27734;47.028;28.820;2023-06-24T04:33:00;100228.66;;;25.08;57.88
42067;BME280;27734;47.028;28.820;2023-06-24T04:35:32;100265.29;;;25.10;57.45
42067;BME280;27734;47.028;28.820;2023-06-24T04:38:03;100297.42;;;25.14;57.58
42067;BME280;27734;47.028;28.820;2023-06-24T04:40:34;100316.17;;;25.15;57.67
42067;BME280;27734;47.028;28.820;2023-06-24T04:43:06;100335.75;;;25.19;58.08
42067;BME280;27734;47.028;28.820;2023-06-24T04:45:37;100342.89;;;25.20;58.24
42067;BME280;27734;47.028;28.820;2023-06-24T04:48:08;100338.43;;;25.19;58.38
42067;BME280;27734;47.028;28.820;2023-06-24T04:50:39;100345.53;;;25.21;58.47
42067;BME280;27734;47.028;28.820;2023-06-24T04:53:11;100356.15;;;25.26;58.75
42067;BME280;27734;47.028;28.820;2023-06-24T04:55:42;100350.70;;;25.29;58.87
42067;BME280;27734;47.028;28.820;2023-06-24T04:58:13;100356.88;;;25.33;59.57
42067;BME280;27734;47.028;28.820;2023-06-24T05:00:45;100352.47;;;25.30;59.86
42067;BME280;27734;47.028;28.820;2023-06-24T05:03:16;100357.89;;;25.27;60.15
42067;BME280;27734;47.028;28.820;2023-06-24T05:05:47;100362.39;;;25.26;59.91
42067;BME280;27734;47.028;28.820;2023-06-24T05:08:19;100362.39;;;25.26;60.00
42067;BME280;27734;47.028;28.820;2023-06-24T05:10:50;100357.75;;;25.33;60.54
42067;BME280;27734;47.028;28.820;2023-06-24T05:13:21;100354.24;;;25.31;60.26
42067;BME280;27734;47.028;28.820;2023-06-24T05:15:53;100360.48;;;25.32;60.20
42067;BME280;27734;47.028;28.820;2023-06-24T05:18:24;100359.61;;;25.31;60.42
42067;BME280;27734;47.028;28.820;2023-06-24T05:20:55;100358.54;;;25.37;59.83
42067;BME280;27734;47.028;28.820;2023-06-24T05:23:26;100348.58;;;25.42;60.19
42067;BME280;27734;47.028;28.820;2023-06-24T05:25:58;100361.91;;;25.45;59.83
42067;BME280;27734;47.028;28.820;2023-06-24T05:28:29;100367.98;;;25.52;59.99
42067;BME280;27734;47.028;28.820;2023-06-24T05:31:00;100375.74;;;25.62;59.84
42067;BME280;27734;47.028;28.820;2023-06-24T05:33:31;100372.92;;;25.67;59.71
42067;BME280;27734;47.028;28.820;2023-06-24T05:36:03;100370.89;;;25.75;59.71
42067;BME280;27734;47.028;28.820;2023-06-24T05:38:34;100385.87;;;25.84;59.27
42067;BME280;27734;47.028;28.820;2023-06-24T05:41:05;100387.39;;;25.93;59.68
42067;BME280;27734;47.028;28.820;2023-06-24T05:43:37;100399.67;;;26.03;59.18
42067;BME280;27734;47.028;28.820;2023-06-24T05:46:08;100399.45;;;26.11;59.06
42067;BME280;27734;47.028;28.820;2023-06-24T05:48:39;100409.92;;;26.20;59.22
42067;BME280;27734;47.028;28.820;2023-06-24T05:51:19;100413.25;;;26.28;59.06
42067;BME280;27734;47.028;28.820;2023-06-24T05:53:53;100417.48;;;26.37;58.96
42067;BME280;27734;47.028;28.820;2023-06-24T05:56:24;100415.42;;;26.45;58.96
42067;BME280;27734;47.028;28.820;2023-06-24T05:58:57;100417.09;;;26.49;58.75
42067;BME280;27734;47.028;28.820;2023-06-24T06:01:29;100416.14;;;26.50;58.69
42067;BME280;27734;47.028;28.820;2023-06-24T06:04:00;100420.51;;;26.54;58.95
42067;BME280;27734;47.028;28.820;2023-06-24T06:06:31;100427.61;;;26.57;58.39
42067;BME280;27734;47.028;28.820;2023-06-24T06:09:04;100429.14;;;26.66;58.66
42067;BME280;27734;47.028;28.820;2023-06-24T06:11:36;100419.03;;;26.74;58.62
42067;BME280;27734;47.028;28.820;2023-06-24T06:14:07;100417.88;;;26.81;58.33
42067;BME280;27734;47.028;28.820;2023-06-24T06:16:38;100411.53;;;26.84;58.02
42067;BME280;27734;47.028;28.820;2023-06-24T06:19:09;100423.02;;;26.89;58.28
42067;BME280;27734;47.028;28.820;2023-06-24T06:21:41;100412.09;;;26.94;57.97
42067;BME280;27734;47.028;28.820;2023-06-24T06:24:12;100405.58;;;27.01;57.74
42067;BME280;27734;47.028;28.820;2023-06-24T06:26:44;100401.72;;;27.08;58.09
42067;BME280;27734;47.028;28.820;2023-06-24T06:29:16;100397.90;;;27.15;57.62
42067;BME280;27734;47.028;28.820;2023-06-24T06:31:47;100393.06;;;27.25;58.02
42067;BME280;27734;47.028;28.820;2023-06-24T06:34:19;100402.63;;;27.35;58.07
42067;BME280;27734;47.028;28.820;2023-06-24T06:36:51;100399.66;;;27.43;57.31
42067;BME280;27734;47.028;28.820;2023-06-24T06:39:22;100405.70;;;27.50;57.13
42067;BME280;27734;47.028;28.820;2023-06-24T06:41:53;100390.17;;;27.56;57.29
42067;BME280;27734;47.028;28.820;2023-06-24T06:44:27;100398.83;;;27.66;56.79
42067;BME280;27734;47.028;28.820;2023-06-24T06:46:59;100390.52;;;27.72;56.44
42067;BME280;27734;47.028;28.820;2023-06-24T06:49:30;100394.72;;;27.79;56.53
42067;BME280;27734;47.028;28.820;2023-06-24T06:52:01;100387.24;;;27.88;55.89
42067;BME280;27734;47.028;28.820;2023-06-24T06:54:32;100372.54;;;27.96;56.09
42067;BME280;27734;47.028;28.820;2023-06-24T06:57:04;100375.81;;;28.05;55.23
42067;BME280;27734;47.028;28.820;2023-06-24T06:59:35;100374.46;;;28.17;54.89
42067;BME280;27734;47.028;28.820;2023-06-24T07:02:07;100384.71;;;28.30;55.20
42067;BME280;27734;47.028;28.820;2023-06-24T07:04:38;100377.05;;;28.42;54.60
42067;BME280;27734;47.028;28.820;2023-06-24T07:07:09;100383.84;;;28.52;54.64
42067;BME280;27734;47.028;28.820;2023-06-24T07:09:41;100374.50;;;28.61;54.10
42067;BME280;27734;47.028;28.820;2023-06-24T07:12:12;100374.64;;;28.80;54.19
42067;BME280;27734;47.028;28.820;2023-06-24T07:14:44;100369.39;;;28.97;53.60
42067;BME280;27734;47.028;28.820;2023-06-24T07:17:15;100366.03;;;29.13;53.12
42067;BME280;27734;47.028;28.820;2023-06-24T07:19:46;100361.73;;;29.29;52.65
42067;BME280;27734;47.028;28.820;2023-06-24T07:22:17;100356.61;;;29.44;52.61
42067;BME280;27734;47.028;28.820;2023-06-24T07:24:48;100350.27;;;29.64;51.99
42067;BME280;27734;47.028;28.820;2023-06-24T07:27:19;100346.66;;;29.84;51.67
42067;BME280;27734;47.028;28.820;2023-06-24T07:29:50;100339.30;;;30.06;51.63
42067;BME280;27734;47.028;28.820;2023-06-24T07:32:21;100350.17;;;30.24;51.02
42067;BME280;27734;47.028;28.820;2023-06-24T07:34:52;100363.11;;;30.36;50.78
42067;BME280;27734;47.028;28.820;2023-06-24T07:37:24;100354.19;;;30.53;49.57
42067;BME280;27734;47.028;28.820;2023-06-24T07:39:55;100354.52;;;30.64;50.14
42067;BME280;27734;47.028;28.820;2023-06-24T07:42:26;100355.75;;;30.76;49.81
42067;BME280;27734;47.028;28.820;2023-06-24T07:44:57;100355.36;;;30.84;49.50
42067;BME280;27734;47.028;28.820;2023-06-24T07:47:28;100362.81;;;30.98;48.73
42067;BME280;27734;47.028;28.820;2023-06-24T07:49:59;100351.06;;;31.15;48.94
42067;BME280;27734;47.028;28.820;2023-06-24T07:52:30;100348.20;;;31.35;47.84
42067;BME280;27734;47.028;28.820;2023-06-24T07:55:01;100341.38;;;31.44;48.09
42067;BME280;27734;47.028;28.820;2023-06-24T07:57:33;100341.56;;;31.59;47.64
42067;BME280;27734;47.028;28.820;2023-06-24T08:00:05;100342.97;;;31.66;46.99
42067;BME280;27734;47.028;28.820;2023-06-24T08:02:43;100336.51;;;31.68;46.57
42067;BME280;27734;47.028;28.820;2023-06-24T08:05:14;100336.61;;;31.83;46.42
42067;BME280;27734;47.028;28.820;2023-06-24T08:07:48;100331.83;;;32.04;46.27
42067;BME280;27734;47.028;28.820;2023-06-24T08:10:19;100317.65;;;32.15;46.18
42067;BME280;27734;47.028;28.820;2023-06-24T08:12:50;100332.28;;;32.28;45.53
42067;BME280;27734;47.028;28.820;2023-06-24T08:15:21;100323.60;;;32.37;45.60
42067;BME280;27734;47.028;28.820;2023-06-24T08:17:54;100324.02;;;32.46;45.38
42067;BME280;27734;47.028;28.820;2023-06-24T08:20:25;100313.07;;;32.47;45.32
42067;BME280;27734;47.028;28.820;2023-06-24T08:22:56;100314.11;;;32.60;44.37
42067;BME280;27734;47.028;28.820;2023-06-24T08:25:27;100319.80;;;32.72;44.29
42067;BME280;27734;47.028;28.820;2023-06-24T08:27:58;100324.09;;;32.76;44.35
42067;BME280;27734;47.028;28.820;2023-06-24T08:30:29;100314.22;;;32.89;43.87
42067;BME280;27734;47.028;28.820;2023-06-24T08:33:01;100318.53;;;33.08;43.83
42067;BME280;27734;47.028;28.820;2023-06-24T08:35:32;100315.67;;;33.25;43.53
42067;BME280;27734;47.028;28.820;2023-06-24T08:38:03;100315.00;;;33.36;43.31
42067;BME280;27734;47.028;28.820;2023-06-24T08:40:35;100320.86;;;33.44;42.95
42067;BME280;27734;47.028;28.820;2023-06-24T08:43:09;100313.17;;;33.51;42.61
42067;BME280;27734;47.028;28.820;2023-06-24T08:45:40;100317.94;;;33.62;42.59
42067;BME280;27734;47.028;28.820;2023-06-24T08:48:12;100318.81;;;33.77;42.16
42067;BME280;27734;47.028;28.820;2023-06-24T08:50:49;100322.50;;;33.90;41.88
42067;BME280;27734;47.028;28.820;2023-06-24T08:53:22;100320.94;;;34.00;41.25
42067;BME280;27734;47.028;28.820;2023-06-24T08:55:55;100308.66;;;34.08;41.15
42067;BME280;27734;47.028;28.820;2023-06-24T08:58:27;100304.87;;;34.10;40.93
42067;BME280;27734;47.028;28.820;2023-06-24T09:00:59;100312.53;;;34.18;40.64
42067;BME280;27734;47.028;28.820;2023-06-24T09:03:30;100302.30;;;34.21;40.70
42067;BME280;27734;47.028;28.820;2023-06-24T09:06:01;100295.89;;;34.23;40.20
42067;BME280;27734;47.028;28.820;2023-06-24T09:08:32;100284.14;;;34.22;40.58
42067;BME280;27734;47.028;28.820;2023-06-24T09:11:05;100286.06;;;34.20;39.97
42067;BME280;27734;47.028;28.820;2023-06-24T09:13:39;100276.77;;;34.24;40.02
42067;BME280;27734;47.028;28.820;2023-06-24T09:16:16;100280.91;;;34.30;39.81
42067;BME280;27734;47.028;28.820;2023-06-24T09:18:50;100281.21;;;34.25;39.36
42067;BME280;27734;47.028;28.820;2023-06-24T09:21:26;100290.73;;;34.32;39.57
42067;BME280;27734;47.028;28.820;2023-06-24T09:24:00;100283.80;;;34.41;39.25
42067;BME280;27734;47.028;28.820;2023-06-24T09:26:31;100284.80;;;34.53;39.42
42067;BME280;27734;47.028;28.820;2023-06-24T09:29:02;100279.93;;;34.58;39.07
42067;BME280;27734;47.028;28.820;2023-06-24T09:31:34;100280.38;;;34.65;38.79
42067;BME280;27734;47.028;28.820;2023-06-24T09:34:05;100272.35;;;34.76;38.83
42067;BME280;27734;47.028;28.820;2023-06-24T09:36:43;100277.70;;;34.78;38.22
42067;BME280;27734;47.028;28.820;2023-06-24T09:39:14;100268.77;;;34.76;38.16
42067;BME280;27734;47.028;28.820;2023-06-24T09:41:50;100275.41;;;34.84;38.21
42067;BME280;27734;47.028;28.820;2023-06-24T09:44:21;100271.61;;;34.87;38.26
42067;BME280;27734;47.028;28.820;2023-06-24T09:46:52;100271.72;;;34.85;37.79
42067;BME280;27734;47.028;28.820;2023-06-24T09:49:24;100265.04;;;34.77;37.85
42067;BME280;27734;47.028;28.820;2023-06-24T09:51:58;100260.22;;;34.67;37.81
42067;BME280;27734;47.028;28.820;2023-06-24T09:54:30;100267.27;;;34.57;37.55
42067;BME280;27734;47.028;28.820;2023-06-24T09:57:04;100267.61;;;34.65;37.83
42067;BME280;27734;47.028;28.820;2023-06-24T09:59:36;100265.40;;;34.85;37.47
42067;BME280;27734;47.028;28.820;2023-06-24T10:02:11;100274.58;;;35.09;37.43
42067;BME280;27734;47.028;28.820;2023-06-24T10:04:45;100273.49;;;35.25;37.44
42067;BME280;27734;47.028;28.820;2023-06-24T10:07:17;100283.21;;;35.29;37.48
42067;BME280;27734;47.028;28.820;2023-06-24T10:09:48;100276.23;;;35.38;37.12
42067;BME280;27734;47.028;28.820;2023-06-24T10:12:20;100273.17;;;35.42;37.26
42067;BME280;27734;47.028;28.820;2023-06-24T10:14:51;100269.14;;;35.35;36.99
42067;BME280;27734;47.028;28.820;2023-06-24T10:17:22;100270.98;;;35.22;36.77
42067;BME280;27734;47.028;28.820;2023-06-24T10:19:54;100271.42;;;35.16;36.68
42067;BME280;27734;47.028;28.820;2023-06-24T10:22:26;100271.31;;;35.17;36.91
42067;BME280;27734;47.028;28.820;2023-06-24T10:25:05;100266.28;;;35.24;36.79
42067;BME280;27734;47.028;28.820;2023-06-24T10:27:41;100261.92;;;35.34;36.60
42067;BME280;27734;47.028;28.820;2023-06-24T10:30:18;100258.09;;;35.50;36.47
42067;BME280;27734;47.028;28.820;2023-06-24T10:32:52;100261.00;;;35.72;36.39
42067;BME280;27734;47.028;28.820;2023-06-24T10:35:25;100259.79;;;35.89;36.08
42067;BME280;27734;47.028;28.820;2023-06-24T10:38:00;100254.05;;;36.05;35.99
42067;BME280;27734;47.028;28.820;2023-06-24T10:40:39;100245.73;;;36.07;35.63
42067;BME280;27734;47.028;28.820;2023-06-24T10:43:29;100241.80;;;36.11;35.83
42067;BME280;27734;47.028;28.820;2023-06-24T10:46:00;100251.70;;;36.12;35.56
42067;BME280;27734;47.028;28.820;2023-06-24T10:48:31;100244.69;;;36.21;35.49
42067;BME280;27734;47.028;28.820;2023-06-24T10:51:02;100242.59;;;36.24;35.22
42067;BME280;27734;47.028;28.820;2023-06-24T10:53:34;100235.83;;;36.30;35.36
42067;BME280;27734;47.028;28.820;2023-06-24T10:56:06;100232.23;;;36.29;35.04
42067;BME280;27734;47.028;28.820;2023-06-24T10:58:37;100239.00;;;36.24;34.89
42067;BME280;27734;47.028;28.820;2023-06-24T11:01:11;100231.84;;;36.10;35.15
42067;BME280;27734;47.028;28.820;2023-06-24T11:03:45;100231.08;;;35.84;34.90
42067;BME280;27734;47.028;28.820;2023-06-24T11:06:16;100231.95;;;35.71;34.67
42067;BME280;27734;47.028;28.820;2023-06-24T11:08:47;100232.64;;;35.62;34.85
42067;BME280;27734;47.028;28.820;2023-06-24T11:11:21;100229.16;;;35.60;34.65
42067;BME280;27734;47.028;28.820;2023-06-24T11:13:53;100232.45;;;35.52;34.63
42067;BME280;27734;47.028;28.820;2023-06-24T11:16:25;100229.20;;;35.47;34.56
42067;BME280;27734;47.028;28.820;2023-06-24T11:18:56;100226.25;;;35.37;34.73
42067;BME280;27734;47.028;28.820;2023-06-24T11:21:31;100222.99;;;35.32;34.90
42067;BME280;27734;47.028;28.820;2023-06-24T11:24:03;100218.62;;;35.42;34.93
42067;BME280;27734;47.028;28.820;2023-06-24T11:26:34;100216.94;;;35.53;34.83
42067;BME280;27734;47.028;28.820;2023-06-24T11:29:12;100216.20;;;35.51;34.69
42067;BME280;27734;47.028;28.820;2023-06-24T11:31:44;100214.77;;;35.58;34.98
42067;BME280;27734;47.028;28.820;2023-06-24T11:34:15;100209.31;;;35.58;34.74
42067;BME280;27734;47.028;28.820;2023-06-24T11:36:46;100208.98;;;35.50;34.73
42067;BME280;27734;47.028;28.820;2023-06-24T11:39:27;100209.09;;;35.48;34.68
42067;BME280;27734;47.028;28.820;2023-06-24T11:41:59;100205.05;;;35.54;34.72
42067;BME280;27734;47.028;28.820;2023-06-24T11:44:32;100214.66;;;35.59;34.62
42067;BME280;27734;47.028;28.820;2023-06-24T11:47:08;100206.70;;;35.56;34.65
42067;BME280;27734;47.028;28.820;2023-06-24T11:50:00;100204.49;;;35.61;34.82
42067;BME280;27734;47.028;28.820;2023-06-24T11:52:40;100205.56;;;35.72;34.72
42067;BME280;27734;47.028;28.820;2023-06-24T11:55:17;100202.69;;;35.86;34.67
42067;BME280;27734;47.028;28.820;2023-06-24T11:57:51;100198.73;;;35.90;34.34
42067;BME280;27734;47.028;28.820;2023-06-24T12:00:23;100196.34;;;35.86;34.18
42067;BME280;27734;47.028;28.820;2023-06-24T12:02:56;100191.31;;;35.92;34.36
42067;BME280;27734;47.028;28.820;2023-06-24T12:05:29;100185.39;;;35.98;34.19
42067;BME280;27734;47.028;28.820;2023-06-24T12:08:02;100180.95;;;36.09;34.07
42067;BME280;27734;47.028;28.820;2023-06-24T12:10:34;100179.14;;;36.21;34.02
42067;BME280;27734;47.028;28.820;2023-06-24T12:13:06;100175.00;;;36.28;34.33
42067;BME280;27734;47.028;28.820;2023-06-24T12:15:38;100182.18;;;36.29;34.21
42067;BME280;27734;47.028;28.820;2023-06-24T12:18:09;100184.38;;;36.24;34.35
42067;BME280;27734;47.028;28.820;2023-06-24T12:20:40;100180.01;;;36.21;34.18
42067;BME280;27734;47.028;28.820;2023-06-24T12:23:13;100180.01;;;36.21;34.20
42067;BME280;27734;47.028;28.820;2023-06-24T12:25:44;100172.83;;;36.20;34.14
42067;BME280;27734;47.028;28.820;2023-06-24T12:28:15;100181.64;;;36.24;34.35
42067;BME280;27734;47.028;28.820;2023-06-24T12:30:46;100173.41;;;36.12;34.08
42067;BME280;27734;47.028;28.820;2023-06-24T12:33:17;100171.89;;;36.08;34.27
42067;BME280;27734;47.028;28.820;2023-06-24T12:35:50;100163.00;;;36.17;34.23
42067;BME280;27734;47.028;28.820;2023-06-24T12:38:22;100164.45;;;36.34;34.27
42067;BME280;27734;47.028;28.820;2023-06-24T12:40:53;100157.79;;;36.50;34.13
42067;BME280;27734;47.028;28.820;2023-06-24T12:43:24;100155.31;;;36.58;34.09
42067;BME280;27734;47.028;28.820;2023-06-24T12:45:55;100156.78;;;36.51;33.91
42067;BME280;27734;47.028;28.820;2023-06-24T12:48:26;100150.06;;;36.32;34.01
42067;BME280;27734;47.028;28.820;2023-06-24T12:50:57;100166.94;;;36.13;33.96
42067;BME280;27734;47.028;28.820;2023-06-24T12:53:28;100168.00;;;35.99;33.87
42067;BME280;27734;47.028;28.820;2023-06-24T12:55:59;100180.63;;;35.89;34.00
42067;BME280;27734;47.028;28.820;2023-06-24T12:58:30;100186.37;;;35.97;34.26
42067;BME280;27734;47.028;28.820;2023-06-24T13:01:01;100181.53;;;36.01;34.04
42067;BME280;27734;47.028;28.820;2023-06-24T13:03:32;100177.31;;;35.97;33.88
42067;BME280;27734;47.028;28.820;2023-06-24T13:06:04;100178.12;;;35.86;34.11
42067;BME280;27734;47.028;28.820;2023-06-24T13:08:35;100179.56;;;35.79;33.97
42067;BME280;27734;47.028;28.820;2023-06-24T13:11:06;100177.73;;;35.79;34.15
42067;BME280;27734;47.028;28.820;2023-06-24T13:13:37;100176.09;;;35.77;34.28